Time;durP1;ratioP1;P1;durP2;ratioP2;P2;SDS_P1;SDS_P2;PMS_P1;PMS_P2;Temp;Humidity;BMP_temperature;BMP_pressure;BME280_temperature;BME280_humidity;BME280_pressure;Samples;Min_cycle;Max_cycle;Signal;HPM_P1;HPM_P2
2023/03/16 00:00:13;;;;;;;11.93;3.17;;;;;;;;;;5015938;28;20264;-65
2023/03/16 00:02:42;;;;;;;5.70;2.43;;;;;;;;;;5007776;28;20285;-66
2023/03/16 00:05:09;;;;;;;6.13;2.07;;;;;;;;;;5017220;28;20193;-66
2023/03/16 00:07:34;;;;;;;11.23;2.93;;;;;;;;;;5013531;28;20735;-66
2023/03/16 00:10:00;;;;;;;6.07;2.13;;;;;;;;;;5015656;28;20194;-66
2023/03/16 00:12:26;;;;;;;6.27;2.30;;;;;;;;;;5014280;28;20217;-66
2023/03/16 00:14:51;;;;;;;7.23;2.37;;;;;;;;;;5014614;28;20220;-67
2023/03/16 00:17:19;;;;;;;9.10;2.73;;;;;;;;;;5017999;28;20230;-67
2023/03/16 00:19:46;;;;;;;6.20;2.60;;;;;;;;;;5015663;28;20698;-66
2023/03/16 00:22:13;;;;;;;6.27;2.63;;;;;;;;;;5016218;28;20731;-67
2023/03/16 00:24:42;;;;;;;8.33;4.30;;;;;;;;;;5016435;28;20268;-66
2023/03/16 00:27:13;;;;;;;5.83;2.47;;;;;;;;;;5016095;28;20230;-66
2023/03/16 00:29:54;;;;;;;5.70;2.60;;;;;;;;;;5013646;28;20273;-66
2023/03/16 00:32:23;;;;;;;6.43;2.40;;;;;;;;;;5016547;28;20668;-66
2023/03/16 00:34:48;;;;;;;8.43;2.90;;;;;;;;;;5015562;28;21172;-66
2023/03/16 00:37:16;;;;;;;7.57;2.93;;;;;;;;;;5016027;28;20286;-66
2023/03/16 00:39:42;;;;;;;7.63;2.97;;;;;;;;;;5015059;28;20260;-66
2023/03/16 00:42:09;;;;;;;8.63;3.13;;;;;;;;;;5016168;28;20194;-66
2023/03/16 00:44:36;;;;;;;8.23;3.10;;;;;;;;;;5015704;28;20507;-68
2023/03/16 00:47:03;;;;;;;7.37;2.60;;;;;;;;;;5016904;28;20603;-67
2023/03/16 00:49:28;;;;;;;7.90;3.30;;;;;;;;;;5014243;28;20726;-66
2023/03/16 00:51:54;;;;;;;8.70;3.27;;;;;;;;;;5015426;28;20318;-66
2023/03/16 00:54:21;;;;;;;9.30;2.90;;;;;;;;;;5014894;28;20201;-66
2023/03/16 00:56:46;;;;;;;8.77;3.30;;;;;;;;;;5016200;28;21020;-66
2023/03/16 00:59:11;;;;;;;10.00;3.57;;;;;;;;;;5018577;28;20221;-66
2023/03/16 01:01:37;;;;;;;12.93;3.10;;;;;;;;;;5018984;28;20232;-66
2023/03/16 01:04:03;;;;;;;6.63;3.07;;;;;;;;;;5019541;28;20197;-66
2023/03/16 01:06:29;;;;;;;8.73;3.23;;;;;;;;;;5014924;28;20208;-66
2023/03/16 01:08:54;;;;;;;7.63;3.30;;;;;;;;;;5020424;28;20197;-66
2023/03/16 01:11:21;;;;;;;4.83;2.70;;;;;;;;;;5017839;28;20630;-66
2023/03/16 01:13:48;;;;;;;9.90;3.53;;;;;;;;;;5019427;28;20340;-66
2023/03/16 01:16:15;;;;;;;6.53;2.63;;;;;;;;;;5019607;28;20202;-66
2023/03/16 01:18:41;;;;;;;5.97;2.80;;;;;;;;;;5016919;28;20740;-66
2023/03/16 01:21:08;;;;;;;10.20;3.00;;;;;;;;;;5018933;28;20324;-66
2023/03/16 01:23:35;;;;;;;10.43;3.03;;;;;;;;;;5017435;28;20205;-66
2023/03/16 01:26:00;;;;;;;7.13;2.80;;;;;;;;;;5018320;28;20282;-66
2023/03/16 01:28:28;;;;;;;7.90;2.97;;;;;;;;;;5019843;28;20374;-67
2023/03/16 01:30:58;;;;;;;8.40;2.90;;;;;;;;;;5016349;28;20247;-66
2023/03/16 01:33:25;;;;;;;7.37;2.70;;;;;;;;;;5019560;28;20897;-66
2023/03/16 01:36:11;;;;;;;7.87;2.40;;;;;;;;;;5018702;28;21173;-66
2023/03/16 01:38:36;;;;;;;6.03;2.47;;;;;;;;;;5014627;28;20201;-66
2023/03/16 01:41:02;;;;;;;6.57;2.60;;;;;;;;;;5018203;28;20190;-66
2023/03/16 01:43:30;;;;;;;4.83;2.50;;;;;;;;;;5018135;28;20955;-66
2023/03/16 01:46:04;;;;;;;6.30;2.80;;;;;;;;;;5018175;28;20221;-66
2023/03/16 01:48:42;;;;;;;7.20;2.47;;;;;;;;;;5016913;28;21172;-66
2023/03/16 01:51:19;;;;;;;7.63;2.60;;;;;;;;;;5018900;28;20592;-66
2023/03/16 01:53:47;;;;;;;5.47;2.47;;;;;;;;;;5018456;28;20221;-66
2023/03/16 01:56:17;;;;;;;6.30;2.60;;;;;;;;;;5019388;28;20190;-66
2023/03/16 01:58:44;;;;;;;5.10;2.50;;;;;;;;;;5017964;28;20210;-65
2023/03/16 02:01:11;;;;;;;4.37;2.20;;;;;;;;;;5016225;28;20267;-66
2023/03/16 02:03:38;;;;;;;8.33;2.90;;;;;;;;;;5019232;28;20198;-66
2023/03/16 02:06:21;;;;;;;4.73;2.33;;;;;;;;;;5025542;28;20343;-65
2023/03/16 02:08:48;;;;;;;5.50;2.30;;;;;;;;;;5020448;28;20609;-65
2023/03/16 02:11:17;;;;;;;7.63;2.27;;;;;;;;;;5017225;28;20540;-65
2023/03/16 02:13:46;;;;;;;6.33;2.23;;;;;;;;;;5019789;28;20198;-65
2023/03/16 02:16:18;;;;;;;6.03;2.47;;;;;;;;;;5018216;28;20634;-65
2023/03/16 02:18:44;;;;;;;5.77;1.97;;;;;;;;;;5031504;28;20205;-65
2023/03/16 02:21:42;;;;;;;7.20;2.60;;;;;;;;;;5019413;28;20201;-65
2023/03/16 02:24:08;;;;;;;5.03;2.60;;;;;;;;;;5020274;28;20670;-66
2023/03/16 02:26:52;;;;;;;4.87;2.43;;;;;;;;;;5020287;28;20237;-66
2023/03/16 02:29:42;;;;;;;7.33;2.47;;;;;;;;;;5016758;28;20189;-66
2023/03/16 02:32:08;;;;;;;6.43;2.77;;;;;;;;;;5023335;28;20201;-66
2023/03/16 02:34:34;;;;;;;6.53;2.27;;;;;;;;;;5016156;28;20221;-66
2023/03/16 02:37:01;;;;;;;4.50;2.43;;;;;;;;;;5027686;28;20217;-66
2023/03/16 02:39:26;;;;;;;6.23;3.60;;;;;;;;;;5025140;28;20214;-67
2023/03/16 02:41:51;;;;;;;7.10;2.63;;;;;;;;;;5023195;28;20189;-65
2023/03/16 02:44:45;;;;;;;6.03;2.50;;;;;;;;;;5026148;28;20193;-65
2023/03/16 02:47:32;;;;;;;6.73;2.33;;;;;;;;;;5017642;28;20193;-66
2023/03/16 02:49:58;;;;;;;6.07;2.53;;;;;;;;;;5026549;28;20186;-66
2023/03/16 02:52:23;;;;;;;5.00;2.43;;;;;;;;;;5023423;28;20197;-66
2023/03/16 02:54:48;;;;;;;5.83;2.23;;;;;;;;;;5026525;28;20646;-65
2023/03/16 02:57:14;;;;;;;6.67;2.27;;;;;;;;;;5027626;28;20182;-66
2023/03/16 02:59:40;;;;;;;5.47;2.33;;;;;;;;;;5021551;28;20218;-66
2023/03/16 03:02:05;;;;;;;6.60;2.30;;;;;;;;;;5026875;28;20277;-66
2023/03/16 03:04:31;;;;;;;4.83;2.20;;;;;;;;;;5028321;28;20273;-66
2023/03/16 03:07:02;;;;;;;8.67;2.47;;;;;;;;;;5022941;28;20215;-66
2023/03/16 03:09:28;;;;;;;3.57;2.40;;;;;;;;;;5018878;28;20247;-65
2023/03/16 03:11:53;;;;;;;8.83;3.03;;;;;;;;;;5024981;28;20194;-66
2023/03/16 03:14:19;;;;;;;4.50;2.43;;;;;;;;;;5034144;28;20217;-66
2023/03/16 03:16:45;;;;;;;4.97;2.87;;;;;;;;;;5021908;28;20200;-66
2023/03/16 03:19:11;;;;;;;5.93;2.23;;;;;;;;;;5021021;28;20213;-66
2023/03/16 03:21:37;;;;;;;7.00;3.57;;;;;;;;;;5019209;28;20535;-66
2023/03/16 03:24:02;;;;;;;5.50;2.73;;;;;;;;;;5024615;28;20968;-66
2023/03/16 03:26:28;;;;;;;5.90;3.03;;;;;;;;;;5012202;28;20195;-66
2023/03/16 03:28:53;;;;;;;11.63;3.20;;;;;;;;;;5025136;28;20933;-66
2023/03/16 03:31:21;;;;;;;7.03;2.97;;;;;;;;;;5020020;28;20375;-65
2023/03/16 03:33:47;;;;;;;7.03;3.30;;;;;;;;;;5025723;28;20198;-66
2023/03/16 03:36:13;;;;;;;6.13;2.87;;;;;;;;;;5015703;28;20201;-66
2023/03/16 03:38:38;;;;;;;9.70;3.67;;;;;;;;;;5027215;28;20198;-66
2023/03/16 03:41:07;;;;;;;9.07;3.13;;;;;;;;;;5024537;28;20216;-65
2023/03/16 03:43:33;;;;;;;6.23;3.10;;;;;;;;;;5021338;28;20646;-67
2023/03/16 03:46:00;;;;;;;8.90;3.43;;;;;;;;;;5022274;28;20406;-65
2023/03/16 03:48:26;;;;;;;5.00;3.00;;;;;;;;;;5027881;28;20202;-66
2023/03/16 03:50:52;;;;;;;5.73;2.20;;;;;;;;;;5024436;28;20415;-66
2023/03/16 03:53:17;;;;;;;6.10;3.00;;;;;;;;;;5022718;28;20293;-66
2023/03/16 03:55:43;;;;;;;6.53;2.77;;;;;;;;;;5015927;28;20209;-66
2023/03/16 03:58:08;;;;;;;7.50;3.20;;;;;;;;;;5026303;28;20190;-66
2023/03/16 04:00:34;;;;;;;4.10;2.37;;;;;;;;;;5020644;28;20252;-65
2023/03/16 04:03:00;;;;;;;5.87;2.43;;;;;;;;;;5024667;28;20204;-66
2023/03/16 04:05:26;;;;;;;4.73;2.50;;;;;;;;;;5017921;28;20190;-66
2023/03/16 04:07:56;;;;;;;3.80;2.13;;;;;;;;;;5019688;28;20190;-66
2023/03/16 04:10:25;;;;;;;5.37;2.70;;;;;;;;;;5025750;28;20266;-65
2023/03/16 04:12:50;;;;;;;4.77;2.60;;;;;;;;;;5017338;28;20722;-65
2023/03/16 04:15:16;;;;;;;8.10;2.37;;;;;;;;;;5013014;28;20266;-66
2023/03/16 04:17:41;;;;;;;6.70;3.07;;;;;;;;;;5012412;28;20209;-65
2023/03/16 04:20:13;;;;;;;7.27;2.67;;;;;;;;;;5014383;28;20304;-65
2023/03/16 04:22:41;;;;;;;3.77;2.40;;;;;;;;;;5014774;28;20194;-66
2023/03/16 04:25:08;;;;;;;6.03;2.50;;;;;;;;;;5018050;28;20613;-66
2023/03/16 04:27:35;;;;;;;5.17;2.13;;;;;;;;;;5024854;28;20321;-66
2023/03/16 04:30:04;;;;;;;5.93;2.30;;;;;;;;;;5014330;28;20617;-66
2023/03/16 04:32:31;;;;;;;5.77;2.50;;;;;;;;;;5021856;28;20316;-65
2023/03/16 04:34:57;;;;;;;5.03;2.60;;;;;;;;;;5021239;28;20197;-66
2023/03/16 04:37:22;;;;;;;5.93;2.30;;;;;;;;;;5024143;28;20185;-65
2023/03/16 04:39:47;;;;;;;7.43;2.67;;;;;;;;;;5014359;28;20649;-65
2023/03/16 04:42:13;;;;;;;3.77;2.20;;;;;;;;;;5019652;28;20190;-65
2023/03/16 04:44:43;;;;;;;3.97;2.27;;;;;;;;;;5016018;28;20510;-65
2023/03/16 04:47:09;;;;;;;5.73;2.77;;;;;;;;;;5021774;28;20252;-66
2023/03/16 04:49:35;;;;;;;4.50;2.30;;;;;;;;;;5012040;28;20225;-65
2023/03/16 04:52:00;;;;;;;5.90;2.43;;;;;;;;;;5016438;28;20194;-69
2023/03/16 04:54:26;;;;;;;5.30;2.40;;;;;;;;;;5010246;28;20182;-65
2023/03/16 04:56:51;;;;;;;4.70;2.63;;;;;;;;;;5011459;28;20191;-65
2023/03/16 04:59:17;;;;;;;3.33;2.27;;;;;;;;;;5021088;28;20634;-65
2023/03/16 05:01:42;;;;;;;5.37;2.33;;;;;;;;;;5019502;28;20317;-65
2023/03/16 05:04:08;;;;;;;7.97;2.40;;;;;;;;;;5009082;28;20198;-65
2023/03/16 05:06:33;;;;;;;5.13;2.50;;;;;;;;;;5014514;28;20190;-65
2023/03/16 05:08:59;;;;;;;5.03;2.77;;;;;;;;;;5025563;28;20190;-65
2023/03/16 05:11:25;;;;;;;6.10;2.47;;;;;;;;;;5025390;28;20183;-65
2023/03/16 05:13:51;;;;;;;5.73;2.70;;;;;;;;;;5016281;28;20194;-65
2023/03/16 05:16:16;;;;;;;6.17;2.37;;;;;;;;;;5016559;28;20182;-65
2023/03/16 05:18:41;;;;;;;3.23;2.40;;;;;;;;;;5017305;28;20726;-67
2023/03/16 05:21:07;;;;;;;8.23;2.40;;;;;;;;;;5018637;28;20255;-66
2023/03/16 05:23:32;;;;;;;4.60;2.10;;;;;;;;;;5012389;28;20191;-66
2023/03/16 05:26:01;;;;;;;5.10;2.77;;;;;;;;;;5008636;28;20199;-66
2023/03/16 05:28:27;;;;;;;6.17;2.70;;;;;;;;;;5010875;28;20230;-67
2023/03/16 05:30:52;;;;;;;6.10;2.50;;;;;;;;;;5015849;28;20300;-66
2023/03/16 05:33:18;;;;;;;5.70;2.50;;;;;;;;;;5011885;28;20654;-67
2023/03/16 05:35:43;;;;;;;6.17;2.87;;;;;;;;;;5016453;28;20205;-67
2023/03/16 05:38:09;;;;;;;6.17;3.07;;;;;;;;;;5013160;28;20336;-67
2023/03/16 05:40:36;;;;;;;5.10;2.50;;;;;;;;;;5021101;28;20341;-66
2023/03/16 05:43:03;;;;;;;6.77;2.83;;;;;;;;;;5022617;28;20584;-66
2023/03/16 05:45:28;;;;;;;4.27;2.47;;;;;;;;;;5027866;28;20271;-67
2023/03/16 05:47:54;;;;;;;6.13;2.33;;;;;;;;;;5017937;28;20226;-66
2023/03/16 05:50:20;;;;;;;7.07;2.60;;;;;;;;;;5027464;28;20182;-66
2023/03/16 05:52:45;;;;;;;5.53;3.13;;;;;;;;;;5024599;28;20646;-66
2023/03/16 05:55:13;;;;;;;3.93;2.50;;;;;;;;;;5016038;28;20545;-66
2023/03/16 05:57:39;;;;;;;9.03;3.10;;;;;;;;;;5024342;28;20882;-66
2023/03/16 06:00:14;;;;;;;7.30;3.30;;;;;;;;;;5020562;28;20308;-66
2023/03/16 06:02:41;;;;;;;6.07;3.30;;;;;;;;;;5029099;28;20193;-65
2023/03/16 06:05:07;;;;;;;7.97;3.03;;;;;;;;;;5026580;28;20182;-67
2023/03/16 06:07:33;;;;;;;4.60;2.77;;;;;;;;;;5025038;28;20187;-66
2023/03/16 06:09:58;;;;;;;5.30;3.00;;;;;;;;;;5028645;28;20272;-67
2023/03/16 06:12:24;;;;;;;6.27;3.00;;;;;;;;;;5022643;28;20269;-66
2023/03/16 06:14:49;;;;;;;5.60;2.60;;;;;;;;;;5027765;28;20194;-66
2023/03/16 06:17:14;;;;;;;7.87;2.77;;;;;;;;;;5020820;28;20584;-66
2023/03/16 06:19:40;;;;;;;3.83;2.40;;;;;;;;;;5025668;28;20545;-67
2023/03/16 06:22:05;;;;;;;4.93;2.43;;;;;;;;;;5024622;28;20178;-66
2023/03/16 06:24:31;;;;;;;6.00;2.73;;;;;;;;;;5024706;28;20193;-67
2023/03/16 06:26:56;;;;;;;5.10;2.60;;;;;;;;;;5013286;28;20257;-67
2023/03/16 06:29:21;;;;;;;5.73;2.57;;;;;;;;;;5017760;28;20270;-67
2023/03/16 06:31:47;;;;;;;5.73;2.57;;;;;;;;;;5021376;28;20191;-66
2023/03/16 06:34:12;;;;;;;5.07;2.43;;;;;;;;;;5016511;28;20595;-67
2023/03/16 06:36:38;;;;;;;6.87;2.60;;;;;;;;;;5027035;28;20321;-66
2023/03/16 06:39:04;;;;;;;5.03;2.60;;;;;;;;;;5031629;28;20603;-67
2023/03/16 06:41:30;;;;;;;6.77;3.17;;;;;;;;;;5024250;28;20186;-67
2023/03/16 06:43:56;;;;;;;5.30;2.80;;;;;;;;;;5029114;28;20194;-67
2023/03/16 06:46:21;;;;;;;6.03;2.60;;;;;;;;;;5013127;28;20194;-67
2023/03/16 06:48:47;;;;;;;4.57;2.67;;;;;;;;;;5026957;28;20190;-67
2023/03/16 06:51:12;;;;;;;4.03;2.40;;;;;;;;;;5024671;28;20196;-67
2023/03/16 06:53:37;;;;;;;5.27;2.57;;;;;;;;;;5028913;28;20195;-66
2023/03/16 06:56:03;;;;;;;5.37;2.60;;;;;;;;;;5025084;28;20214;-67
2023/03/16 06:58:28;;;;;;;4.43;2.47;;;;;;;;;;5020933;28;20190;-66
2023/03/16 07:00:54;;;;;;;5.67;2.60;;;;;;;;;;5027757;28;20225;-66
2023/03/16 07:03:20;;;;;;;6.53;2.80;;;;;;;;;;5022973;28;20217;-66
2023/03/16 07:05:45;;;;;;;6.97;2.93;;;;;;;;;;5014982;28;20202;-65
2023/03/16 07:08:11;;;;;;;4.83;2.53;;;;;;;;;;5016704;28;20623;-66
2023/03/16 07:10:36;;;;;;;5.43;2.70;;;;;;;;;;5021020;28;20182;-67
2023/03/16 07:13:03;;;;;;;5.97;2.63;;;;;;;;;;5019740;28;20193;-66
2023/03/16 07:15:28;;;;;;;5.67;2.73;;;;;;;;;;5019176;28;20194;-66
2023/03/16 07:17:53;;;;;;;6.17;2.67;;;;;;;;;;5014734;28;20264;-67
2023/03/16 07:20:19;;;;;;;5.77;2.80;;;;;;;;;;5015685;28;20221;-67
2023/03/16 07:22:45;;;;;;;5.50;2.80;;;;;;;;;;5015048;28;20862;-65
2023/03/16 07:25:10;;;;;;;6.13;2.80;;;;;;;;;;5015169;28;20189;-65
2023/03/16 07:27:37;;;;;;;4.57;2.90;;;;;;;;;;5015003;28;20257;-65
2023/03/16 07:30:04;;;;;;;4.17;2.57;;;;;;;;;;5014348;28;20639;-65
2023/03/16 07:32:31;;;;;;;5.43;2.77;;;;;;;;;;5015893;28;20198;-66
2023/03/16 07:34:57;;;;;;;4.27;3.10;;;;;;;;;;5013945;28;20198;-66
2023/03/16 07:37:24;;;;;;;4.67;2.70;;;;;;;;;;5015859;28;20619;-66
2023/03/16 07:39:50;;;;;;;6.67;2.93;;;;;;;;;;5013461;28;20582;-66
2023/03/16 07:42:15;;;;;;;6.03;2.90;;;;;;;;;;5013156;28;20197;-66
2023/03/16 07:44:41;;;;;;;6.20;2.90;;;;;;;;;;5015692;28;20273;-66
2023/03/16 07:47:06;;;;;;;7.22;2.85;;;;;;;;;;5013734;28;20326;-66
2023/03/16 07:49:32;;;;;;;4.82;2.38;;;;;;;;;;5018136;28;20759;-66
2023/03/16 07:51:57;;;;;;;3.95;2.80;;;;;;;;;;5017277;28;20209;-67
2023/03/16 07:54:23;;;;;;;4.57;2.83;;;;;;;;;;5016511;28;20734;-66
2023/03/16 07:56:48;;;;;;;5.32;3.17;;;;;;;;;;5012841;28;20193;-65
2023/03/16 07:59:14;;;;;;;4.63;2.90;;;;;;;;;;5012098;28;20206;-66
2023/03/16 08:01:39;;;;;;;8.10;3.20;;;;;;;;;;5009896;28;20222;-66
2023/03/16 08:04:04;;;;;;;6.40;2.90;;;;;;;;;;5012853;28;20189;-65
2023/03/16 08:06:30;;;;;;;5.07;3.30;;;;;;;;;;5011297;28;20198;-66
2023/03/16 08:08:55;;;;;;;4.38;2.95;;;;;;;;;;5016431;28;20221;-65
2023/03/16 08:11:23;;;;;;;5.90;3.38;;;;;;;;;;5014799;28;20219;-65
2023/03/16 08:13:53;;;;;;;5.45;3.20;;;;;;;;;;5015050;28;20186;-65
2023/03/16 08:16:22;;;;;;;5.22;3.13;;;;;;;;;;5012573;28;20530;-65
2023/03/16 08:18:49;;;;;;;4.55;3.03;;;;;;;;;;5012830;28;20205;-66
2023/03/16 08:21:15;;;;;;;13.38;3.55;;;;;;;;;;5012578;28;20284;-65
2023/03/16 08:23:42;;;;;;;6.03;3.25;;;;;;;;;;5013199;28;20201;-65
2023/03/16 08:26:08;;;;;;;7.97;3.17;;;;;;;;;;5011812;28;20197;-65
2023/03/16 08:28:34;;;;;;;7.60;3.25;;;;;;;;;;5012222;28;20241;-65
2023/03/16 08:31:00;;;;;;;8.98;3.58;;;;;;;;;;5013463;28;20182;-65
2023/03/16 08:33:26;;;;;;;7.03;3.22;;;;;;;;;;5014042;28;20245;-65
2023/03/16 08:35:52;;;;;;;6.13;3.58;;;;;;;;;;5010309;28;20284;-65
2023/03/16 08:38:19;;;;;;;10.30;4.13;;;;;;;;;;5008116;28;20843;-65
2023/03/16 08:40:47;;;;;;;7.93;3.63;;;;;;;;;;5009727;28;20253;-65
2023/03/16 08:43:15;;;;;;;7.10;3.80;;;;;;;;;;5012528;28;20332;-65
2023/03/16 08:45:43;;;;;;;7.45;3.60;;;;;;;;;;5011548;28;20202;-65
2023/03/16 08:48:11;;;;;;;6.75;3.70;;;;;;;;;;5011042;28;20201;-65
2023/03/16 08:50:39;;;;;;;7.93;3.88;;;;;;;;;;5012641;28;20220;-65
2023/03/16 08:53:04;;;;;;;7.18;3.78;;;;;;;;;;5011133;28;20206;-65
2023/03/16 08:55:29;;;;;;;7.03;3.47;;;;;;;;;;5013272;28;20210;-65
2023/03/16 08:57:55;;;;;;;8.57;3.80;;;;;;;;;;5012530;28;20761;-65
2023/03/16 09:00:20;;;;;;;7.05;4.03;;;;;;;;;;5012117;28;20257;-65
2023/03/16 09:02:46;;;;;;;5.53;3.97;;;;;;;;;;5011966;28;20201;-65
2023/03/16 09:05:14;;;;;;;7.05;3.97;;;;;;;;;;5012754;28;20383;-65
2023/03/16 09:07:41;;;;;;;9.48;4.20;;;;;;;;;;5010383;28;20676;-65
2023/03/16 09:10:07;;;;;;;8.93;4.28;;;;;;;;;;5011736;28;20318;-65
2023/03/16 09:12:36;;;;;;;7.78;3.75;;;;;;;;;;5009402;28;20644;-65
2023/03/16 09:15:03;;;;;;;8.20;3.78;;;;;;;;;;5011430;28;20336;-66
2023/03/16 09:17:28;;;;;;;7.35;4.05;;;;;;;;;;5013120;28;20248;-65
2023/03/16 09:19:54;;;;;;;8.70;4.55;;;;;;;;;;5018802;28;20733;-65
2023/03/16 09:22:20;;;;;;;9.40;4.22;;;;;;;;;;5018344;28;20681;-64
2023/03/16 09:24:47;;;;;;;7.05;3.95;;;;;;;;;;5021510;28;20197;-64
2023/03/16 09:27:14;;;;;;;7.18;4.18;;;;;;;;;;5016284;28;20260;-65
2023/03/16 09:29:39;;;;;;;8.43;4.53;;;;;;;;;;5018275;28;20796;-65
2023/03/16 09:32:06;;;;;;;6.90;4.35;;;;;;;;;;5015554;28;20284;-64
2023/03/16 09:34:31;;;;;;;6.80;4.20;;;;;;;;;;5015282;28;20193;-64
2023/03/16 09:36:57;;;;;;;8.23;4.30;;;;;;;;;;5019713;28;20646;-64
2023/03/16 09:39:22;;;;;;;7.00;3.90;;;;;;;;;;5015997;28;20672;-66
2023/03/16 09:41:58;;;;;;;7.93;4.20;;;;;;;;;;5015664;28;20201;-64
2023/03/16 09:44:41;;;;;;;6.30;4.50;;;;;;;;;;5015338;28;20255;-66
2023/03/16 09:47:10;;;;;;;8.80;4.60;;;;;;;;;;5013443;28;20285;-66
2023/03/16 09:49:44;;;;;;;8.40;3.70;;;;;;;;;;5012079;28;20248;-65
2023/03/16 09:52:29;;;;;;;9.20;3.95;;;;;;;;;;5016997;28;20198;-65
2023/03/16 09:55:04;;;;;;;5.82;3.60;;;;;;;;;;5016176;28;20465;-66
2023/03/16 09:57:35;;;;;;;5.53;3.70;;;;;;;;;;5016439;28;20217;-65
2023/03/16 10:00:25;;;;;;;8.25;3.55;;;;;;;;;;5017482;28;20723;-65
2023/03/16 10:02:59;;;;;;;6.43;3.65;;;;;;;;;;5016948;28;20186;-65
2023/03/16 10:05:26;;;;;;;6.97;3.60;;;;;;;;;;5016024;28;20212;-66
2023/03/16 10:07:54;;;;;;;5.70;4.05;;;;;;;;;;5017811;28;20198;-66
2023/03/16 10:10:54;;;;;;;6.07;3.53;;;;;;;;;;5015534;28;20218;-66
2023/03/16 10:13:32;;;;;;;6.53;3.72;;;;;;;;;;5018986;28;20213;-67
2023/03/16 10:16:04;;;;;;;5.50;3.85;;;;;;;;;;5014450;28;20189;-65
2023/03/16 10:18:40;;;;;;;5.63;2.90;;;;;;;;;;5014788;28;20198;-65
2023/03/16 10:21:14;;;;;;;8.68;3.35;;;;;;;;;;5017989;28;20214;-65
2023/03/16 10:23:41;;;;;;;7.95;3.83;;;;;;;;;;5017067;28;20244;-66
2023/03/16 10:26:21;;;;;;;5.30;3.53;;;;;;;;;;5014866;28;20269;-66
2023/03/16 10:28:47;;;;;;;5.32;3.40;;;;;;;;;;5016936;28;20245;-65
2023/03/16 10:31:14;;;;;;;8.00;3.30;;;;;;;;;;5017504;28;20240;-65
2023/03/16 10:33:39;;;;;;;8.60;3.50;;;;;;;;;;5015397;28;20709;-65
2023/03/16 10:36:32;;;;;;;9.65;3.28;;;;;;;;;;5027552;28;20216;-66
2023/03/16 10:39:18;;;;;;;6.28;3.33;;;;;;;;;;5025002;28;20189;-66
2023/03/16 10:41:52;;;;;;;5.97;3.42;;;;;;;;;;5019463;28;20190;-65
2023/03/16 10:44:24;;;;;;;5.15;2.78;;;;;;;;;;5018829;28;20273;-66
2023/03/16 10:47:02;;;;;;;6.47;3.20;;;;;;;;;;5010034;28;20201;-66
2023/03/16 10:49:41;;;;;;;4.93;2.70;;;;;;;;;;5013666;28;20198;-65
2023/03/16 10:52:15;;;;;;;5.70;2.88;;;;;;;;;;5018828;28;20200;-65
2023/03/16 10:54:49;;;;;;;6.60;3.00;;;;;;;;;;5016628;28;20496;-66
2023/03/16 10:57:22;;;;;;;5.47;3.00;;;;;;;;;;5023885;28;20239;-65
2023/03/16 10:59:50;;;;;;;5.15;3.13;;;;;;;;;;5027194;28;20229;-67
2023/03/16 11:02:19;;;;;;;4.88;2.85;;;;;;;;;;5028998;28;20919;-66
2023/03/16 11:04:46;;;;;;;5.88;2.88;;;;;;;;;;5029014;28;20193;-65
2023/03/16 11:07:17;;;;;;;4.68;3.00;;;;;;;;;;5016763;28;20202;-65
2023/03/16 11:09:44;;;;;;;4.00;2.63;;;;;;;;;;5017174;28;20187;-65
2023/03/16 11:12:14;;;;;;;5.18;3.03;;;;;;;;;;5023999;28;20213;-67
2023/03/16 11:14:43;;;;;;;5.90;3.00;;;;;;;;;;5028802;28;20194;-65
2023/03/16 11:17:16;;;;;;;5.18;2.80;;;;;;;;;;5025434;28;20186;-65
2023/03/16 11:20:13;;;;;;;8.32;2.88;;;;;;;;;;5013461;28;20222;-67
2023/03/16 11:22:40;;;;;;;5.57;2.90;;;;;;;;;;5028638;28;20280;-66
2023/03/16 11:25:14;;;;;;;5.30;2.95;;;;;;;;;;5026759;28;20273;-66
2023/03/16 11:28:07;;;;;;;5.32;2.70;;;;;;;;;;5018393;28;20240;-65
2023/03/16 11:31:03;;;;;;;4.15;2.30;;;;;;;;;;5015903;28;20211;-65
2023/03/16 11:33:30;;;;;;;6.50;2.53;;;;;;;;;;5006323;28;20281;-65
2023/03/16 11:36:28;;;;;;;4.72;2.85;;;;;;;;;;5024624;28;20259;-65
2023/03/16 11:39:20;;;;;;;4.28;2.35;;;;;;;;;;5017120;28;20277;-65
2023/03/16 11:42:13;;;;;;;5.15;2.72;;;;;;;;;;5023446;28;20682;-66
2023/03/16 11:45:14;;;;;;;3.05;2.25;;;;;;;;;;5010252;28;20236;-65
2023/03/16 11:48:02;;;;;;;5.38;2.42;;;;;;;;;;5020984;28;20220;-65
2023/03/16 11:50:42;;;;;;;4.22;2.45;;;;;;;;;;5015884;28;20269;-66
2023/03/16 11:53:21;;;;;;;7.45;2.85;;;;;;;;;;5023683;28;20300;-65
2023/03/16 11:55:50;;;;;;;3.95;2.42;;;;;;;;;;5027504;28;20189;-65
2023/03/16 11:59:00;;;;;;;3.55;2.55;;;;;;;;;;5018407;28;20194;-66
2023/03/16 12:01:55;;;;;;;5.32;2.63;;;;;;;;;;5001398;28;20277;-66
2023/03/16 12:04:29;;;;;;;7.60;2.97;;;;;;;;;;5026578;28;20230;-65
2023/03/16 12:07:24;;;;;;;5.75;2.85;;;;;;;;;;5024336;28;20182;-66
2023/03/16 12:10:22;;;;;;;3.08;2.40;;;;;;;;;;5006075;28;20199;-65
2023/03/16 12:13:18;;;;;;;4.00;2.22;;;;;;;;;;5012507;28;20300;-65
2023/03/16 12:15:53;;;;;;;4.70;2.75;;;;;;;;;;5015742;28;20186;-66
2023/03/16 12:18:44;;;;;;;3.75;2.22;;;;;;;;;;5022258;28;20272;-66
2023/03/16 12:21:32;;;;;;;3.50;2.40;;;;;;;;;;5024704;28;20353;-66
2023/03/16 12:24:03;;;;;;;3.80;2.35;;;;;;;;;;5027309;28;20190;-65
2023/03/16 12:26:38;;;;;;;3.90;2.50;;;;;;;;;;5028335;28;20320;-65
2023/03/16 12:29:27;;;;;;;3.33;2.10;;;;;;;;;;5028166;28;20239;-65
2023/03/16 12:31:57;;;;;;;5.53;2.47;;;;;;;;;;5028004;28;20576;-67
2023/03/16 12:34:52;;;;;;;3.88;2.25;;;;;;;;;;5022735;28;20545;-67
2023/03/16 12:37:22;;;;;;;4.78;2.47;;;;;;;;;;5014454;28;20202;-67
2023/03/16 12:40:08;;;;;;;6.90;2.63;;;;;;;;;;5019502;28;20242;-66
2023/03/16 12:43:07;;;;;;;5.15;2.53;;;;;;;;;;5011108;28;20190;-66
2023/03/16 12:45:48;;;;;;;4.03;2.25;;;;;;;;;;5018974;28;20195;-67
2023/03/16 12:48:55;;;;;;;4.43;2.55;;;;;;;;;;5025370;28;20190;-66
2023/03/16 12:51:31;;;;;;;3.70;2.50;;;;;;;;;;5004346;28;20190;-66
2023/03/16 12:53:58;;;;;;;3.83;2.40;;;;;;;;;;5005318;28;20198;-67
2023/03/16 12:56:35;;;;;;;4.50;2.20;;;;;;;;;;5011655;28;20658;-66
2023/03/16 12:59:04;;;;;;;3.80;2.35;;;;;;;;;;5027017;28;20198;-66
2023/03/16 13:01:38;;;;;;;7.78;3.70;;;;;;;;;;5013535;28;20202;-66
2023/03/16 13:04:11;;;;;;;4.72;2.85;;;;;;;;;;5027003;28;20190;-66
2023/03/16 13:06:47;;;;;;;5.78;2.80;;;;;;;;;;5027248;28;20185;-66
2023/03/16 13:09:18;;;;;;;4.65;2.90;;;;;;;;;;5022180;28;20182;-66
2023/03/16 13:11:49;;;;;;;5.32;2.90;;;;;;;;;;5023789;28;20221;-66
2023/03/16 13:14:53;;;;;;;4.32;2.45;;;;;;;;;;5027783;28;20229;-66
2023/03/16 13:17:18;;;;;;;7.20;2.90;;;;;;;;;;4994580;28;20225;-66
2023/03/16 13:20:24;;;;;;;5.85;3.17;;;;;;;;;;5003310;28;20344;-66
2023/03/16 13:23:10;;;;;;;4.78;2.80;;;;;;;;;;5016971;28;20216;-66
2023/03/16 13:25:44;;;;;;;4.25;2.47;;;;;;;;;;5005706;28;20233;-67
2023/03/16 13:28:12;;;;;;;5.22;3.13;;;;;;;;;;5014094;28;20230;-66
2023/03/16 13:30:47;;;;;;;4.38;2.85;;;;;;;;;;5026750;28;20182;-64
2023/03/16 13:33:42;;;;;;;5.35;3.00;;;;;;;;;;5020461;28;20485;-66
2023/03/16 13:36:11;;;;;;;6.78;3.03;;;;;;;;;;5010012;28;20281;-65
2023/03/16 13:38:36;;;;;;;6.28;2.80;;;;;;;;;;5026983;28;20317;-65
2023/03/16 13:41:07;;;;;;;5.60;2.60;;;;;;;;;;5011614;28;20741;-66
2023/03/16 13:43:38;;;;;;;5.68;3.17;;;;;;;;;;5019422;28;20201;-66
2023/03/16 13:46:17;;;;;;;5.50;2.95;;;;;;;;;;5020330;28;20189;-66
2023/03/16 13:48:42;;;;;;;8.57;2.65;;;;;;;;;;5015563;28;20354;-66
2023/03/16 13:51:19;;;;;;;5.78;2.65;;;;;;;;;;5034126;28;20335;-66
2023/03/16 13:53:46;;;;;;;4.90;2.40;;;;;;;;;;5014885;28;20197;-67
2023/03/16 13:56:14;;;;;;;5.30;2.35;;;;;;;;;;5027557;28;20190;-66
2023/03/16 13:58:45;;;;;;;8.40;2.70;;;;;;;;;;5013186;28;20194;-66
2023/03/16 14:01:24;;;;;;;4.10;2.65;;;;;;;;;;5027202;28;20244;-66
2023/03/16 14:03:50;;;;;;;3.60;2.20;;;;;;;;;;5014721;28;20194;-66
2023/03/16 14:06:24;;;;;;;5.22;2.40;;;;;;;;;;5030223;28;20254;-66
2023/03/16 14:08:55;;;;;;;5.70;2.50;;;;;;;;;;5029797;28;20281;-66
2023/03/16 14:11:20;;;;;;;5.13;2.30;;;;;;;;;;5030399;28;20185;-68
2023/03/16 14:13:54;;;;;;;4.43;2.42;;;;;;;;;;5029253;28;20197;-66
2023/03/16 14:16:23;;;;;;;4.45;2.33;;;;;;;;;;5031043;28;20247;-66
2023/03/16 14:19:01;;;;;;;4.45;2.17;;;;;;;;;;5029015;28;20193;-66
2023/03/16 14:21:29;;;;;;;4.75;2.47;;;;;;;;;;5010752;28;20198;-66
2023/03/16 14:24:00;;;;;;;6.13;2.42;;;;;;;;;;5018772;28;20197;-66
2023/03/16 14:26:37;;;;;;;6.78;2.30;;;;;;;;;;5018727;28;20183;-66
2023/03/16 14:29:31;;;;;;;5.50;1.92;;;;;;;;;;5020351;28;20189;-67
2023/03/16 14:31:58;;;;;;;5.20;2.40;;;;;;;;;;5025874;28;20178;-67
2023/03/16 14:34:34;;;;;;;4.53;2.17;;;;;;;;;;5026322;28;20186;-66
2023/03/16 14:37:08;;;;;;;4.40;2.33;;;;;;;;;;5014957;28;20194;-66
2023/03/16 14:39:34;;;;;;;3.72;2.30;;;;;;;;;;5022040;28;20651;-66
2023/03/16 14:42:03;;;;;;;4.97;2.40;;;;;;;;;;5017372;28;20178;-66
2023/03/16 14:44:33;;;;;;;3.45;2.05;;;;;;;;;;5023170;28;20270;-67
2023/03/16 14:47:00;;;;;;;4.95;2.30;;;;;;;;;;5024573;28;20187;-67
2023/03/16 14:49:32;;;;;;;3.83;2.08;;;;;;;;;;5022437;28;20273;-67
2023/03/16 14:52:04;;;;;;;5.82;1.85;;;;;;;;;;5021807;28;20451;-66
2023/03/16 14:54:29;;;;;;;7.63;2.08;;;;;;;;;;5022317;28;20216;-66
2023/03/16 14:57:04;;;;;;;6.05;2.13;;;;;;;;;;5024167;28;20187;-66
2023/03/16 14:59:30;;;;;;;7.88;2.17;;;;;;;;;;5014418;28;20221;-66
2023/03/16 15:01:56;;;;;;;4.65;2.00;;;;;;;;;;5014805;28;20202;-67